Terminal Aerodrome Forecast
Issued by NWS

Home | Current Version | Previous Version | Text Only | Print | Product List | Glossary On
Versions: 1 2 3 4 5 6 7 8 9 10 11 12 13 14 15 16
948
FTUS43 KICT 211856 AAA
TAFHUT
TAF AMD
KHUT 211856Z 2119/2218 32015G25KT P6SM VCTS BKN035CB
     FM212200 34020G28KT P6SM VCSH SCT045 BKN100
     FM220300 34010KT P6SM BKN150=

USA.gov is the U.S. government's official web portal to all federal, state and local government web resources and services.